Terminal Aerodrome Forecast
Issued by NWS Sterling, VA

Current Version | Previous Version | Graphics & Text | Print | Product List | Glossary On
Versions: 1 2 3 4 5 6 7 8 9 10 11 12 13 14 15 16
000
FTUS41 KLWX 100539
TAFMRB
TAF
KMRB 100539Z 1006/1106 23005KT P6SM BKN070
     FM100800 26006KT P6SM SCT080
     FM101200 27010G17KT P6SM SCT250
     FM101500 28014G25KT P6SM SCT200
     FM102100 26010G17KT P6SM SCT090
     FM110000 25006KT P6SM SCT090=

USA.gov is the U.S. government's official web portal to all federal, state and local government web resources and services.